Flight Track Log - Related Links

Times and Time Zones

All times are in EDT time to prevent confusion due to time zone crossing. See the UAL4422 flight status page for this flight to view local times or setup timezone preferences in your user account.

Time Position Orientation Groundspeed Altitude Reporting Facility
EDT Latitude Longitude Course Direction KTS MPH feet Rate Location/Type
Sat 07:29:55 PM 26.7194 -80.2639 336° Northwest 277 319 6,900  Level Miami Center
Sat 07:30:00 PM 26.8167 -80.0670 270° West  Level FlightAware Approximate
Sat 07:30:55 PM 26.7917 -80.2986 337° Northwest 278 320 9,700  Level Miami Center
Sat 07:31:00 PM 26.8280 -80.1736 278° West  Level FlightAware Approximate
Sat 07:31:55 PM 26.8786 -80.3406 337° Northwest 316 364 10,600  Level Miami Center
Sat 07:32:00 PM 26.8500 -80.2759 270° West  Level FlightAware Approximate
Sat 07:32:55 PM 26.9778 -80.3856 338° Northwest 352 405 13,900  Level Miami Center
Sat 07:33:00 PM 26.9044 -80.3439 336° Northwest  Level FlightAware Approximate
Sat 07:33:55 PM 27.0533 -80.4461 324° Northwest 338 389 16,800  Level Miami Center
Sat 07:34:00 PM 26.9921 -80.3876 336° Northwest  Level FlightAware Approximate
Sat 07:34:55 PM 27.1164 -80.5206 314° West 326 375 18,500  Level Miami Center
Sat 07:35:00 PM 27.0798 -80.4315 336° Northwest  Level FlightAware Approximate
Sat 07:35:55 PM 27.1875 -80.5975 316° Northwest 338 389 19,900  Level Miami Center
Sat 07:36:55 PM 27.2667 -80.6817 317° Northwest 362 417 20,000 550 Climbing Miami Center
Sat 07:37:55 PM 27.3478 -80.7686 316° Northwest 380 437 21,000 1,350 Climbing Miami Center
Sat 07:38:55 PM 27.4231 -80.8414 319° Northwest 400 460 22,700 1,000 Climbing Miami Center
Sat 07:39:55 PM 27.5042 -80.9308 316° Northwest 400 460 23,000 1,350 Climbing Miami Center
Sat 07:40:55 PM 27.5850 -81.0178 316° Northwest 400 460 25,400 2,900 Climbing Miami Center
Sat 07:41:55 PM 27.6639 -81.1075 315° West 387 445 28,800 2,850 Climbing Miami Center
Sat 07:42:55 PM 27.7286 -81.1803 315° West 354 407 31,100 1,650 Climbing Miami Center
Sat 07:43:55 PM 27.7972 -81.2533 317° Northwest 342 394 32,100 1,450 Climbing Miami Center
Sat 07:44:55 PM 27.8681 -81.3264 318° Northwest 342 394 34,000 1,800 Climbing Miami Center
Sat 07:45:55 PM 27.9325 -81.3994 315° West 342 394 35,700 1,000 Climbing Miami Center
Sat 07:46:55 PM 28.0011 -81.4775 315° West 337 388 36,000 150 Climbing Miami Center
Sat 07:47:55 PM 28.0756 -81.5581 316° Northwest 348 400 36,000  Level Miami Center
Sat 07:50:03 PM 28.2386 -81.7311 317° Northwest 380 437 36,000  Level Jacksonville Center
Sat 07:51:03 PM 28.3144 -81.8197 314° West 393 452 36,000  Level Jacksonville Center
Sat 07:52:03 PM 28.3656 -81.9278 298° West 393 452 36,000  Level Jacksonville Center
Sat 07:53:03 PM 28.4100 -82.0358 295° West 388 447 36,000  Level Jacksonville Center
Sat 07:54:03 PM 28.4586 -82.1442 297° West 388 447 36,000  Level Jacksonville Center
Sat 07:55:04 PM 28.5053 -82.2500 297° West 381 438 36,000  Level Jacksonville Center
Sat 07:56:03 PM 28.5517 -82.3583 296° West 381 438 36,000  Level Jacksonville Center
Sat 07:57:03 PM 28.5978 -82.4669 296° West 381 438 36,000  Level Jacksonville Center
Sat 07:58:03 PM 28.6461 -82.5708 298° West 381 438 36,000  Level Jacksonville Center
Sat 07:59:03 PM 28.6922 -82.6867 294° West 381 438 36,000  Level Jacksonville Center
Sat 08:00:03 PM 28.7406 -82.7908 298° West 381 438 36,000  Level Jacksonville Center
Sat 08:01:03 PM 28.7864 -82.8972 296° West 381 438 36,000  Level Jacksonville Center
Sat 08:02:04 PM 28.8322 -83.0017 297° West 376 433 36,000  Level Jacksonville Center
Sat 08:03:03 PM 28.8781 -83.1083 296° West 376 433 36,000  Level Jacksonville Center
Sat 08:04:03 PM 28.9239 -83.2153 296° West 381 438 36,000  Level Jacksonville Center
Sat 08:05:03 PM 28.9694 -83.3222 296° West 381 438 36,000  Level Jacksonville Center
Sat 08:06:03 PM 29.0150 -83.4269 296° West 376 433 36,000  Level Jacksonville Center
Sat 08:07:04 PM 29.0603 -83.5364 295° West 376 433 36,000  Level Jacksonville Center
Sat 08:08:04 PM 29.1078 -83.6436 297° West 381 438 36,000  Level Jacksonville Center
Sat 08:09:03 PM 29.1550 -83.7508 297° West 381 438 36,000  Level Jacksonville Center
Sat 08:10:04 PM 29.2003 -83.8608 295° West 381 438 36,000  Level Jacksonville Center
Sat 08:11:03 PM 29.2453 -83.9683 296° West 381 438 36,000  Level Jacksonville Center
Sat 08:12:03 PM 29.2922 -84.0808 296° West 381 438 36,000  Level Jacksonville Center
Sat 08:13:03 PM 29.3392 -84.1908 296° West 381 438 36,000  Level Jacksonville Center
Sat 08:14:03 PM 29.3861 -84.3036 296° West 387 445 36,000  Level Jacksonville Center
Sat 08:15:03 PM 29.4347 -84.4186 296° West 387 445 36,000  Level Jacksonville Center
Sat 08:16:03 PM 29.4794 -84.5267 295° West 382 440 36,000  Level Jacksonville Center
Sat 08:17:03 PM 29.5258 -84.6397 295° West 382 440 36,000  Level Jacksonville Center
Sat 08:18:03 PM 29.5725 -84.7503 296° West 382 440 36,000  Level Jacksonville Center
Sat 08:19:03 PM 29.6208 -84.8589 297° West 382 440 36,000  Level Jacksonville Center
Sat 08:20:03 PM 29.6650 -84.9694 295° West 382 440 36,000  Level Jacksonville Center
Sat 08:21:04 PM 29.7092 -85.0806 295° West 382 440 36,000  Level Jacksonville Center
Sat 08:22:03 PM 29.7533 -85.1867 296° West 377 434 36,000  Level Jacksonville Center
Sat 08:23:03 PM 29.7992 -85.2956 296° West 377 434 36,000  Level Jacksonville Center
Sat 08:24:03 PM 29.8431 -85.4067 295° West 377 434 36,000  Level Jacksonville Center
Sat 08:25:03 PM 29.8867 -85.5158 295° West 377 434 36,000  Level Jacksonville Center
Sat 08:26:03 PM 29.9242 -85.6172 293° West 377 434 36,000  Level Jacksonville Center
Sat 08:27:04 PM 29.9719 -85.7314 296° West 382 440 36,000  Level Jacksonville Center
Sat 08:28:03 PM 30.0194 -85.8383 297° West 382 440 36,000  Level Jacksonville Center
Sat 08:29:03 PM 30.0628 -85.9475 295° West 382 440 36,000  Level Jacksonville Center
Sat 08:30:03 PM 30.1083 -86.0594 295° West 382 440 36,000  Level Jacksonville Center
Sat 08:31:03 PM 30.1533 -86.1714 295° West 382 440 36,000  Level Jacksonville Center
Sat 08:32:03 PM 30.1944 -86.2761 294° West 377 434 36,000  Level Jacksonville Center
Sat 08:33:03 PM 30.2122 -86.3944 280° West 372 428 36,000  Level Jacksonville Center
Sat 08:34:04 PM 30.2214 -86.5103 275° West 372 428 36,000 350 Level Jacksonville Center
Sat 08:35:03 PM 30.2306 -86.6308 275° West 372 428 36,700 500 Climbing Jacksonville Center
Sat 08:36:04 PM 30.2397 -86.7442 275° West 367 422 37,000 149 Climbing Jacksonville Center
Sat 08:37:04 PM 30.2467 -86.8597 274° West 367 422 37,000  Level Jacksonville Center
Sat 08:38:03 PM 30.2594 -86.9806 277° West 361 415 37,000  Level Jacksonville Center
Sat 08:39:03 PM 30.2683 -87.0939 275° West 361 415 37,000  Level Jacksonville Center
Sat 08:40:04 PM 30.2750 -87.2047 274° West 361 415 37,000  Level Jacksonville Center
Sat 08:41:03 PM 30.2836 -87.3206 275° West 356 410 37,000  Level Jacksonville Center
Sat 08:42:03 PM 30.2922 -87.4317 275° West 356 410 37,000  Level Jacksonville Center
Sat 08:43:03 PM 30.3006 -87.5453 275° West 356 410 37,000  Level Jacksonville Center
Sat 08:44:03 PM 30.3072 -87.6514 274° West 356 410 37,000  Level Jacksonville Center
Sat 08:45:40 PM 30.3211 -87.8283 275° West 364 419 37,000  Level Houston Center
Sat 08:46:41 PM 30.3314 -87.9686 275° West 364 419 37,000  Level Houston Center
Sat 08:47:42 PM 30.3400 -88.0850 275° West 363 418 37,000 -341 Level Houston Center
Sat 08:48:44 PM 30.3253 -88.1986 261° West 357 411 36,300 -488 Descending Houston Center
Sat 08:49:45 PM 30.3025 -88.3136 257° West 362 417 36,000 -148 Descending Houston Center
Sat 08:50:46 PM 30.2814 -88.4283 258° West 364 419 36,000  Level Houston Center
Sat 08:51:47 PM 30.2589 -88.5436 257° West 366 421 36,000  Level Houston Center
Sat 08:52:48 PM 30.2372 -88.6597 258° West 368 423 36,000  Level Houston Center
Sat 08:53:50 PM 30.2153 -88.7747 258° West 367 422 36,000  Level Houston Center
Sat 08:54:51 PM 30.1925 -88.8892 257° West 367 422 36,000  Level Houston Center
Sat 08:55:52 PM 30.1708 -89.0064 258° West 370 426 36,000  Level Houston Center
Sat 08:56:53 PM 30.1506 -89.1228 259° West 370 426 36,000  Level Houston Center
Sat 08:57:55 PM 30.1269 -89.2383 257° West 370 426 36,000  Level Houston Center
Sat 08:58:56 PM 30.0994 -89.3769 257° West 369 425 36,000  Level Houston Center
Sat 08:59:57 PM 30.0769 -89.4906 257° West 362 417 36,000  Level Houston Center
Sat 09:00:58 PM 30.0542 -89.6042 257° West 362 417 36,000  Level Houston Center
Sat 09:01:59 PM 30.0308 -89.7197 257° West 365 420 36,000  Level Houston Center
Sat 09:03:00 PM 30.0083 -89.8367 258° West 370 426 36,000  Level Houston Center
Sat 09:04:01 PM 29.9853 -89.9533 257° West 371 427 36,000  Level Houston Center
Sat 09:05:02 PM 29.9622 -90.0697 257° West 371 427 36,000  Level Houston Center
Sat 09:06:03 PM 29.9378 -90.1847 256° West 371 427 36,000  Level Houston Center
Sat 09:07:04 PM 29.9153 -90.2997 257° West 369 425 36,000  Level Houston Center
Sat 09:08:05 PM 29.8906 -90.4142 256° West 368 423 36,000  Level Houston Center
Sat 09:09:06 PM 29.8675 -90.5286 257° West 367 422 36,000  Level Houston Center
Sat 09:10:08 PM 29.8444 -90.6439 257° West 369 425 36,000  Level Houston Center
Sat 09:11:09 PM 29.8208 -90.7575 257° West 367 422 36,000  Level Houston Center
Sat 09:12:10 PM 29.7975 -90.8711 257° West 366 421 36,000  Level Houston Center
Sat 09:13:11 PM 29.7739 -90.9831 256° West 362 417 36,000  Level Houston Center
Sat 09:14:12 PM 29.7453 -91.1181 256° West 362 417 36,000  Level Houston Center
Sat 09:15:13 PM 29.7228 -91.2286 257° West 359 413 36,000  Level Houston Center
Sat 09:16:14 PM 29.6978 -91.3397 256° West 359 413 36,000  Level Houston Center
Sat 09:17:15 PM 29.6750 -91.4514 257° West 359 413 36,000  Level Houston Center
Sat 09:18:16 PM 29.6519 -91.5619 257° West 358 412 36,000  Level Houston Center
Sat 09:19:17 PM 29.6272 -91.6719 256° West 356 410 36,000  Level Houston Center
Sat 09:20:18 PM 29.6028 -91.7850 256° West 356 410 36,000  Level Houston Center
Sat 09:21:19 PM 29.5797 -91.8942 256° West 354 407 36,000  Level Houston Center
Sat 09:22:20 PM 29.5558 -92.0050 256° West 356 410 36,000  Level Houston Center
Sat 09:23:21 PM 29.5317 -92.1150 256° West 356 410 36,000  Level Houston Center
Sat 09:24:22 PM 29.5081 -92.2258 256° West 357 411 36,000  Level Houston Center
Sat 09:25:23 PM 29.4828 -92.3364 255° West 358 412 36,000  Level Houston Center
Sat 09:26:24 PM 29.4594 -92.4483 257° West 360 414 36,000  Level Houston Center
Sat 09:27:25 PM 29.4611 -92.5636 271° West 365 420 36,000  Level Houston Center
Sat 09:28:26 PM 29.4664 -92.6814 273° West 369 425 36,000  Level Houston Center
Sat 09:29:27 PM 29.4722 -92.8219 273° West 368 423 36,000  Level Houston Center
Sat 09:30:28 PM 29.4792 -92.9378 274° West 366 421 36,000  Level Houston Center
Sat 09:31:29 PM 29.4833 -93.0544 272° West 366 421 36,000  Level Houston Center
Sat 09:32:30 PM 29.4889 -93.1722 273° West 368 423 36,000  Level Houston Center
Sat 09:33:31 PM 29.4939 -93.2892 273° West 366 421 36,000 -49 Level Houston Center
Sat 09:34:32 PM 29.4986 -93.4064 273° West 367 422 35,900 -1,525 Descending Houston Center
Sat 09:35:33 PM 29.5031 -93.5242 273° West 368 423 32,900 -3,246 Descending Houston Center
Sat 09:36:34 PM 29.5069 -93.6494 272° West 389 448 29,300 -3,622 Descending Houston Center
Sat 09:37:24 PM 29.5111 -93.7664 272° West 413 475 26,200 -3,421 Descending Houston Center
Sat 09:38:35 PM 29.5175 -93.9128 273° West 412 474 22,400 -3,382 Descending Houston Center
Sat 09:39:14 PM 29.5214 -94.0078 273° West 409 471 20,000 -3,344 Descending Houston Center
Sat 09:39:36 PM 29.5228 -94.0408 273° West 402 463 19,000 -3,444 Descending Houston Center
Sat 09:40:08 PM 29.5242 -94.1181 271° West 388 447 16,900 -3,344 Descending Houston Center
Sat 09:40:37 PM 29.5267 -94.1644 274° West 390 449 15,600 -3,382 Descending Houston Center
Sat 09:41:03 PM 29.5297 -94.2353 273° West 376 433 13,800 -2,361 Descending Houston Center
Sat 09:41:38 PM 29.5306 -94.2792 271° West 376 433 13,200 -873 Descending Houston Center
Sat 09:41:58 PM 29.5356 -94.3378 276° West 347 399 13,000 -492 Descending Houston Center
Sat 09:42:39 PM 29.5594 -94.4050 292° West 353 406 12,700 -393 Descending Houston Center
Sat 09:42:59 PM 29.5731 -94.4386 295° West 348 400 12,600 -492 Descending Houston Center
Sat 09:43:40 PM 29.6011 -94.5031 297° West 346 398 12,200 -627 Descending Houston Center
Sat 09:44:06 PM 29.6169 -94.5436 294° West 343 395 11,900 -492 Descending Houston Center
Sat 09:44:41 PM 29.6436 -94.6031 297° West 347 399 11,700 -492 Descending Houston Center
Sat 09:45:07 PM 29.6633 -94.6531 294° West 353 406 11,400 -1,082 Descending Houston Center
Sat 09:45:42 PM 29.6850 -94.7011 297° West 346 398 10,600 -1,500 Descending Houston Center
Sat 09:46:07 PM 29.7017 -94.7444 294° West 311 358 9,900 -1,475 Descending Houston Center
Sat 09:46:43 PM 29.7225 -94.7869 299° West 309 356 9,100 -1,475 Descending Houston Center
Sat 09:47:08 PM 29.7394 -94.8311 294° West 293 337 8,400 -1,475 Descending Houston Center
Sat 09:47:44 PM 29.7578 -94.8717 298° West 297 342 7,600 -1,475 Descending Houston Center
Sat 09:48:09 PM 29.7744 -94.9136 295° West 293 337 6,900 -1,279 Descending Houston Center
Sat 09:48:45 PM 29.7933 -94.9556 297° West 294 338 6,300 -885 Descending Houston Center
Sat 09:49:10 PM 29.8100 -94.9983 294° West 291 335 6,000 -295 Descending Houston Center
Sat 09:49:46 PM 29.8283 -95.0378 298° West 290 334 6,000  Level Houston Center
Sat 09:50:10 PM 29.8453 -95.0831 293° West 293 337 6,000  Level Houston Center
Sat 09:50:47 PM 29.8636 -95.1217 299° West 294 338 6,000  Level Houston Center
Sat 09:51:11 PM 29.8831 -95.1747 293° West 294 338 6,000  Level Houston Center
Sat 09:51:48 PM 29.8986 -95.2247 290° West 295 339 6,000  Level Houston Center
Sat 09:52:12 PM 29.8978 -95.2644 269° West 289 333 6,000  Level Houston Center
Sat 09:52:48 PM 29.9003 -95.3164 273° West 289 333 6,000  Level Houston Center
Sat 09:53:13 PM 29.8997 -95.3558 269° West 288 331 6,000 -197 Level Houston Center
Sat 09:53:49 PM 29.9008 -95.4083 271° West 290 334 5,800 -1,522 Descending Houston Center
Sat 09:54:20 PM 29.8986 -95.4572 267° West 283 326 4,300 -2,903 Descending Houston Center

Login

Don't have an account? Register now (free) for customized features, flight alerts, and more!